Time;durP1;ratioP1;P1;durP2;ratioP2;P2;SDS_P1;SDS_P2;PMS_P1;PMS_P2;Temp;Humidity;BMP_temperature;BMP_pressure;BME280_temperature;BME280_humidity;BME280_pressure;Samples;Min_cycle;Max_cycle;Signal;HPM_P1;HPM_P2
2022/03/18 00:00:34;;;;;;;16.20;14.30;;;;;21.80;102657.00;;;;2079633;28;20367;-47
2022/03/18 00:01:34;;;;;;;15.43;13.80;;;;;21.80;102650.00;;;;2079560;28;20209;-48
2022/03/18 00:02:35;;;;;;;15.07;13.47;;;;;21.80;102653.00;;;;2079470;28;20705;-48
2022/03/18 00:03:35;;;;;;;17.47;14.50;;;;;21.90;102661.00;;;;2078768;28;20726;-48
2022/03/18 00:04:35;;;;;;;16.40;13.93;;;;;21.80;102665.00;;;;2079179;28;20236;-47
2022/03/18 00:05:36;;;;;;;14.70;13.10;;;;;21.80;102654.00;;;;2078347;28;20209;-48
2022/03/18 00:06:36;;;;;;;15.03;13.43;;;;;21.80;102655.00;;;;2078396;28;20218;-48
2022/03/18 00:07:36;;;;;;;15.23;13.63;;;;;21.80;102665.00;;;;2078126;28;20300;-48
2022/03/18 00:08:37;;;;;;;15.07;13.50;;;;;21.80;102663.00;;;;2078755;28;20218;-48
2022/03/18 00:09:38;;;;;;;14.40;12.90;;;;;21.80;102661.00;;;;2078699;28;20220;-48
2022/03/18 00:10:38;;;;;;;15.03;13.40;;;;;21.80;102663.00;;;;2070240;28;20211;-47
2022/03/18 00:11:39;;;;;;;14.20;12.10;;;;;21.80;102666.00;;;;2070741;28;20236;-48
2022/03/18 00:12:40;;;;;;;14.93;13.48;;;;;21.80;102666.00;;;;2070349;28;20698;-48
2022/03/18 00:13:40;;;;;;;14.03;12.53;;;;;21.80;102670.00;;;;2070991;28;20214;-48
2022/03/18 00:14:40;;;;;;;13.97;12.57;;;;;21.80;102665.00;;;;2071254;28;20249;-47
2022/03/18 00:15:41;;;;;;;15.53;12.90;;;;;21.80;102667.00;;;;2069547;28;20233;-47
2022/03/18 00:16:41;;;;;;;14.37;12.80;;;;;21.80;102667.00;;;;2070423;28;20756;-48
2022/03/18 00:17:42;;;;;;;14.33;12.73;;;;;21.80;102668.00;;;;2070589;28;20237;-48
2022/03/18 00:18:42;;;;;;;13.43;11.97;;;;;21.80;102660.00;;;;2070842;28;20218;-48
2022/03/18 00:19:42;;;;;;;13.87;12.47;;;;;21.80;102671.00;;;;2076690;28;20693;-47
2022/03/18 00:20:43;;;;;;;14.00;12.03;;;;;21.80;102675.00;;;;2079246;28;20291;-47
2022/03/18 00:21:43;;;;;;;13.60;12.20;;;;;21.80;102674.00;;;;2079225;28;20225;-48
2022/03/18 00:22:44;;;;;;;13.00;11.63;;;;;21.80;102677.00;;;;2071075;28;20230;-49
2022/03/18 00:23:44;;;;;;;13.07;11.87;;;;;21.70;102684.00;;;;2070903;28;20877;-48
2022/03/18 00:24:44;;;;;;;12.37;11.07;;;;;21.80;102676.00;;;;2070795;28;20226;-47
2022/03/18 00:25:45;;;;;;;13.90;11.97;;;;;21.80;102680.00;;;;2073444;28;20217;-47
2022/03/18 00:26:45;;;;;;;11.70;10.37;;;;;21.80;102678.00;;;;2078778;28;20232;-47
2022/03/18 00:27:46;;;;;;;12.40;11.10;;;;;21.70;102686.00;;;;2076108;28;20232;-48
2022/03/18 00:28:46;;;;;;;12.50;11.20;;;;;21.70;102670.00;;;;2079033;28;20293;-49
2022/03/18 00:29:47;;;;;;;12.50;11.20;;;;;21.70;102677.00;;;;2077280;28;20240;-47
2022/03/18 00:30:48;;;;;;;11.70;10.60;;;;;21.70;102672.00;;;;2078484;28;20308;-48
2022/03/18 00:31:48;;;;;;;13.75;11.25;;;;;21.70;102674.00;;;;2078455;28;20213;-48
2022/03/18 00:32:51;;;;;;;12.20;11.00;;;;;21.70;102677.00;;;;2074342;28;20732;-47
2022/03/18 00:33:51;;;;;;;12.15;10.85;;;;;21.70;102665.00;;;;2071522;28;20215;-48
2022/03/18 00:34:51;;;;;;;11.60;10.53;;;;;21.70;102672.00;;;;2074173;28;20218;-48
2022/03/18 00:35:52;;;;;;;11.30;10.20;;;;;21.70;102671.00;;;;2071521;28;20214;-47
2022/03/18 00:36:54;;;;;;;11.63;10.47;;;;;21.70;102679.00;;;;2070610;28;20229;-47
2022/03/18 00:37:54;;;;;;;12.35;11.20;;;;;21.70;102668.00;;;;2070540;28;20223;-47
2022/03/18 00:38:55;;;;;;;12.93;10.93;;;;;21.70;102673.00;;;;2070773;28;20218;-48
2022/03/18 00:39:55;;;;;;;12.40;10.20;;;;;21.70;102664.00;;;;2070636;28;20215;-46
2022/03/18 00:40:56;;;;;;;12.47;11.13;;;;;21.70;102661.00;;;;2071221;28;20213;-48
2022/03/18 00:41:56;;;;;;;11.83;10.73;;;;;21.70;102660.00;;;;2071054;28;20222;-47
2022/03/18 00:42:57;;;;;;;13.17;10.07;;;;;21.70;102666.00;;;;2071256;28;20460;-47
2022/03/18 00:43:57;;;;;;;10.80;9.70;;;;;21.70;102668.00;;;;2076001;28;20224;-47
2022/03/18 00:45:01;;;;;;;11.80;10.60;;;;;21.70;102664.00;;;;2079488;28;20213;-47
2022/03/18 00:46:01;;;;;;;10.80;9.70;;;;;21.70;102670.00;;;;2078538;28;20217;-47
2022/03/18 00:47:01;;;;;;;12.50;10.70;;;;;21.70;102671.00;;;;2078929;28;20644;-47
2022/03/18 00:52:05;;;;;;;11.15;9.57;;;;;21.60;102672.00;;;;2066613;28;20297;-48
2022/03/18 00:53:06;;;;;;;10.40;9.30;;;;;21.60;102676.00;;;;2071919;28;20221;-47
2022/03/18 00:54:06;;;;;;;10.77;9.53;;;;;21.60;102670.00;;;;2078254;28;20206;-46
2022/03/18 00:55:07;;;;;;;9.90;9.00;;;;;21.60;102668.00;;;;2078339;28;20206;-48
2022/03/18 00:56:07;;;;;;;10.10;9.10;;;;;21.60;102677.00;;;;2078291;28;20216;-48
2022/03/18 00:57:08;;;;;;;9.70;8.70;;;;;21.60;102675.00;;;;2079170;28;20214;-47
2022/03/18 00:58:08;;;;;;;11.40;9.38;;;;;21.60;102679.00;;;;2078878;28;20213;-48
2022/03/18 00:59:10;;;;;;;10.45;9.43;;;;;21.60;102677.00;;;;2079019;28;20297;-47
2022/03/18 01:00:11;;;;;;;10.23;9.00;;;;;21.60;102685.00;;;;2079231;28;20858;-47
2022/03/18 01:01:11;;;;;;;10.27;8.97;;;;;21.60;102696.00;;;;2079004;28;20296;-47
2022/03/18 01:02:11;;;;;;;11.40;8.80;;;;;21.60;102686.00;;;;2078987;28;20536;-48
2022/03/18 01:03:12;;;;;;;9.57;8.57;;;;;21.60;102693.00;;;;2077782;28;20229;-46
2022/03/18 01:04:12;;;;;;;9.80;8.67;;;;;21.60;102693.00;;;;2077507;28;20229;-46
2022/03/18 01:05:13;;;;;;;10.00;8.90;;;;;21.60;102693.00;;;;2070741;28;20273;-49
2022/03/18 01:06:13;;;;;;;8.90;8.03;;;;;21.60;102699.00;;;;2070326;28;20214;-48
2022/03/18 01:07:13;;;;;;;9.97;8.97;;;;;21.60;102699.00;;;;2070699;28;20237;-48
2022/03/18 01:08:14;;;;;;;11.77;8.70;;;;;21.60;102690.00;;;;2071163;28;20273;-48
2022/03/18 01:09:14;;;;;;;9.13;8.23;;;;;21.60;102703.00;;;;2070985;28;20226;-48
2022/03/18 01:10:14;;;;;;;10.13;8.90;;;;;21.60;102698.00;;;;2071024;28;20582;-48
2022/03/18 01:11:15;;;;;;;9.83;8.40;;;;;21.60;102698.00;;;;2070839;28;20564;-47
2022/03/18 01:12:15;;;;;;;8.40;7.60;;;;;21.60;102703.00;;;;2068691;28;20655;-48
2022/03/18 01:13:16;;;;;;;11.40;8.87;;;;;21.60;102701.00;;;;2078511;28;20222;-48
2022/03/18 01:14:20;;;;;;;9.73;7.80;;;;;21.60;102699.00;;;;2071130;28;20222;-48
2022/03/18 01:15:20;;;;;;;9.10;8.20;;;;;21.60;102701.00;;;;2070065;28;20302;-49
2022/03/18 01:16:20;;;;;;;10.13;8.23;;;;;21.50;102699.00;;;;2070456;28;21086;-49
2022/03/18 01:17:21;;;;;;;9.30;8.33;;;;;21.60;102692.00;;;;2072570;28;20216;-49
2022/03/18 01:18:21;;;;;;;8.43;7.73;;;;;21.60;102700.00;;;;2079327;28;20214;-48
2022/03/18 01:19:21;;;;;;;9.60;8.70;;;;;21.60;102698.00;;;;2078819;28;20585;-48
2022/03/18 01:20:22;;;;;;;10.10;8.30;;;;;21.60;102699.00;;;;2074430;28;20214;-48
2022/03/18 01:21:22;;;;;;;8.23;7.43;;;;;21.50;102699.00;;;;2070961;28;20210;-48
2022/03/18 01:22:22;;;;;;;10.13;8.70;;;;;21.50;102700.00;;;;2071057;28;20317;-48
2022/03/18 01:23:23;;;;;;;8.67;7.80;;;;;21.50;102704.00;;;;2070772;28;20214;-48
2022/03/18 01:24:23;;;;;;;8.40;7.60;;;;;21.50;102703.00;;;;2068312;28;20214;-47
2022/03/18 01:25:23;;;;;;;8.77;7.47;;;;;21.50;102704.00;;;;2069434;28;20214;-48
2022/03/18 01:26:24;;;;;;;8.63;7.77;;;;;21.50;102707.00;;;;2070333;28;20225;-49
2022/03/18 01:27:25;;;;;;;7.80;7.00;;;;;21.50;102706.00;;;;2070076;28;20210;-47
2022/03/18 01:28:27;;;;;;;8.07;7.30;;;;;21.50;102711.00;;;;2070349;28;20457;-47
2022/03/18 01:29:27;;;;;;;7.82;6.90;;;;;21.50;102707.00;;;;2070721;28;20237;-47
2022/03/18 01:30:31;;;;;;;8.30;7.27;;;;;21.50;102706.00;;;;2070616;28;20216;-48
2022/03/18 01:31:32;;;;;;;9.10;7.78;;;;;21.50;102710.00;;;;2078314;28;20205;-48
2022/03/18 01:32:33;;;;;;;8.07;7.07;;;;;21.50;102635.00;;;;2078018;28;20228;-47
2022/03/18 01:33:35;;;;;;;8.43;7.35;;;;;21.50;102704.00;;;;2070690;28;20585;-48
2022/03/18 01:34:36;;;;;;;8.90;7.80;;;;;21.50;102711.00;;;;2073938;28;20221;-48
2022/03/18 01:35:37;;;;;;;9.10;7.57;;;;;21.50;102709.00;;;;2077867;28;21055;-48
2022/03/18 01:36:37;;;;;;;7.93;7.13;;;;;21.50;102705.00;;;;2077639;28;20206;-47
2022/03/18 01:37:38;;;;;;;8.30;7.20;;;;;21.50;102706.00;;;;2070409;28;20881;-47
2022/03/18 01:38:38;;;;;;;8.27;7.40;;;;;21.50;102704.00;;;;2070691;28;20292;-47
2022/03/18 01:39:38;;;;;;;8.10;7.40;;;;;21.50;102703.00;;;;2070660;28;20954;-47
2022/03/18 01:40:39;;;;;;;8.10;7.23;;;;;21.50;102708.00;;;;2070935;28;20764;-49
2022/03/18 01:41:39;;;;;;;8.60;7.80;;;;;21.50;102714.00;;;;2070800;28;20214;-48
2022/03/18 01:42:40;;;;;;;7.77;7.07;;;;;21.50;102708.00;;;;2070981;28;20214;-48
2022/03/18 01:43:42;;;;;;;12.03;8.10;;;;;21.50;102703.00;;;;2069856;28;20467;-49
2022/03/18 01:44:43;;;;;;;7.75;6.97;;;;;21.50;102700.00;;;;2070105;28;20301;-47
2022/03/18 01:45:44;;;;;;;7.97;6.93;;;;;21.40;102708.00;;;;2069453;28;20221;-48
2022/03/18 01:46:44;;;;;;;8.33;7.53;;;;;21.50;102700.00;;;;2070144;28;20449;-48
2022/03/18 01:47:44;;;;;;;9.30;7.80;;;;;21.50;102695.00;;;;2069290;28;20284;-48
2022/03/18 01:48:45;;;;;;;6.93;6.23;;;;;21.40;102698.00;;;;2070845;28;20213;-48
2022/03/18 01:49:45;;;;;;;9.07;6.73;;;;;21.30;102710.00;;;;2070812;28;20712;-48
2022/03/18 01:50:45;;;;;;;8.60;6.37;;;;;21.40;102706.00;;;;2070562;28;20229;-49
2022/03/18 01:51:46;;;;;;;8.33;7.30;;;;;21.50;102709.00;;;;2070168;28;20693;-48
2022/03/18 01:52:46;;;;;;;7.50;6.50;;;;;21.40;102714.00;;;;2054049;28;20761;-48
2022/03/18 01:54:43;;;;;;;8.33;7.03;;;;;21.40;102707.00;;;;2061883;28;20702;-48
2022/03/18 01:55:07;;;;;;;7.53;6.72;;;;;21.40;102708.00;;;;2075716;28;20210;-48
2022/03/18 01:56:08;;;;;;;7.60;6.90;;;;;21.40;102721.00;;;;2078102;28;20209;-47
2022/03/18 01:57:08;;;;;;;7.13;6.43;;;;;21.40;102718.00;;;;2078849;28;20217;-47
2022/03/18 01:58:08;;;;;;;8.37;7.27;;;;;21.40;102724.00;;;;2078781;28;20229;-48
2022/03/18 01:59:09;;;;;;;7.60;6.90;;;;;21.40;102724.00;;;;2078260;28;20963;-47
2022/03/18 02:00:10;;;;;;;8.27;7.30;;;;;21.40;102718.00;;;;2076412;28;20807;-47
2022/03/18 02:01:10;;;;;;;7.18;6.50;;;;;21.40;102718.00;;;;2077179;28;20324;-48
2022/03/18 02:02:11;;;;;;;8.50;7.10;;;;;21.40;102721.00;;;;2078664;28;20221;-47
2022/03/18 02:03:11;;;;;;;7.73;6.40;;;;;21.40;102722.00;;;;2073935;28;20297;-46
2022/03/18 02:04:11;;;;;;;7.60;6.90;;;;;21.40;102717.00;;;;2070288;28;20245;-46
2022/03/18 02:05:12;;;;;;;7.40;6.60;;;;;21.40;102721.00;;;;2070087;28;20304;-47
2022/03/18 02:06:12;;;;;;;7.63;6.57;;;;;21.40;102723.00;;;;2069385;28;20210;-48
2022/03/18 02:07:12;;;;;;;8.30;6.97;;;;;21.40;102724.00;;;;2070218;28;20288;-48
2022/03/18 02:08:15;;;;;;;7.90;6.97;;;;;21.40;102710.00;;;;2070431;28;20257;-47
2022/03/18 02:09:15;;;;;;;7.97;6.50;;;;;21.40;102720.00;;;;2070115;28;20719;-47
2022/03/18 02:10:16;;;;;;;7.77;6.80;;;;;21.40;102731.00;;;;2061888;28;20269;-47
2022/03/18 02:11:16;;;;;;;7.67;6.23;;;;;21.40;102721.00;;;;2069956;28;20709;-48
2022/03/18 02:12:16;;;;;;;7.90;6.40;;;;;21.40;102739.00;;;;2070588;28;20214;-48
2022/03/18 02:13:18;;;;;;;6.97;6.27;;;;;21.40;102726.00;;;;2070839;28;20658;-48
2022/03/18 02:14:31;;;;;;;7.50;6.53;;;;;21.40;102737.00;;;;2070201;28;20218;-48
2022/03/18 02:15:31;;;;;;;7.10;6.40;;;;;21.40;102731.00;;;;2069445;28;20232;-47
2022/03/18 02:16:32;;;;;;;7.30;6.50;;;;;21.40;102731.00;;;;2070611;28;20228;-48
2022/03/18 02:17:32;;;;;;;7.07;6.43;;;;;21.40;102737.00;;;;2070300;28;20225;-47
2022/03/18 02:18:32;;;;;;;7.67;6.67;;;;;21.30;102741.00;;;;2069954;28;20210;-47
2022/03/18 02:19:33;;;;;;;7.20;6.50;;;;;21.30;102743.00;;;;2069754;28;20383;-48
2022/03/18 02:20:34;;;;;;;6.70;6.10;;;;;21.30;102743.00;;;;2070621;28;20233;-48
2022/03/18 02:21:35;;;;;;;7.40;6.50;;;;;21.30;102742.00;;;;2075090;28;20331;-47
2022/03/18 02:22:39;;;;;;;7.27;6.50;;;;;21.30;102744.00;;;;2078944;28;20640;-49
2022/03/18 02:23:40;;;;;;;7.03;6.35;;;;;21.30;102739.00;;;;2077416;28;20232;-48
2022/03/18 02:24:41;;;;;;;6.70;6.10;;;;;21.30;102751.00;;;;2078418;28;20213;-49
2022/03/18 02:25:41;;;;;;;6.97;6.30;;;;;21.30;102751.00;;;;2077924;28;20316;-48
2022/03/18 02:26:46;;;;;;;6.83;6.23;;;;;21.30;102751.00;;;;2078559;28;20842;-48
2022/03/18 02:27:57;;;;;;;6.97;6.30;;;;;21.30;102758.00;;;;2077855;28;20206;-47
2022/03/18 02:28:58;;;;;;;7.15;6.00;;;;;21.30;102760.00;;;;2069970;28;20234;-48
2022/03/18 02:29:58;;;;;;;7.00;6.30;;;;;21.30;102754.00;;;;2070625;28;20222;-47
2022/03/18 02:30:59;;;;;;;6.27;5.67;;;;;21.30;102757.00;;;;2070513;28;20244;-51
2022/03/18 02:32:00;;;;;;;6.93;6.20;;;;;21.30;102764.00;;;;2070884;28;20210;-49
2022/03/18 02:33:01;;;;;;;6.53;5.83;;;;;21.30;102763.00;;;;2069863;28;20218;-48
2022/03/18 02:34:01;;;;;;;7.20;6.30;;;;;21.30;102768.00;;;;2076485;28;20316;-48
2022/03/18 02:35:02;;;;;;;7.57;6.87;;;;;21.30;102770.00;;;;2074672;28;20682;-48
2022/03/18 02:36:02;;;;;;;6.40;5.80;;;;;21.30;102764.00;;;;2069898;28;20218;-48
2022/03/18 02:37:03;;;;;;;6.10;5.50;;;;;21.30;102766.00;;;;2072631;28;20211;-47
2022/03/18 02:38:03;;;;;;;7.13;6.43;;;;;21.30;102767.00;;;;2069559;28;20294;-46
2022/03/18 02:39:04;;;;;;;7.10;6.00;;;;;21.30;102769.00;;;;2085927;28;20205;-49
2022/03/18 02:40:05;;;;;;;6.20;5.60;;;;;21.30;102764.00;;;;2085259;28;20216;-48
2022/03/18 02:41:05;;;;;;;6.60;5.93;;;;;21.30;102771.00;;;;2078584;28;20240;-47
2022/03/18 02:42:05;;;;;;;6.50;5.80;;;;;21.30;102767.00;;;;2078209;28;21178;-47
2022/03/18 02:43:06;;;;;;;7.03;6.13;;;;;21.30;102770.00;;;;2078373;28;20743;-47
2022/03/18 02:44:06;;;;;;;6.37;5.70;;;;;21.30;102774.00;;;;2069992;28;20263;-48
2022/03/18 02:45:08;;;;;;;7.37;6.13;;;;;21.30;102778.00;;;;2075474;28;20216;-48
2022/03/18 02:46:08;;;;;;;6.18;5.68;;;;;21.30;102795.00;;;;2074542;28;20217;-47
2022/03/18 02:47:08;;;;;;;6.53;5.93;;;;;21.30;102769.00;;;;2077714;28;20999;-49
2022/03/18 02:48:09;;;;;;;6.77;6.07;;;;;21.30;102773.00;;;;2077686;28;21049;-49
2022/03/18 02:49:09;;;;;;;7.77;5.87;;;;;21.30;102773.00;;;;2078208;28;20687;-48
2022/03/18 02:50:09;;;;;;;7.23;5.27;;;;;21.20;102781.00;;;;2077286;28;21070;-49
2022/03/18 02:51:10;;;;;;;5.97;5.37;;;;;21.20;102779.00;;;;2078319;28;20675;-48
2022/03/18 02:52:10;;;;;;;6.40;5.73;;;;;21.20;102777.00;;;;2077852;28;20221;-48
2022/03/18 02:53:10;;;;;;;6.50;5.90;;;;;21.20;102777.00;;;;2077062;28;20224;-47
2022/03/18 02:54:12;;;;;;;6.27;5.67;;;;;21.20;102771.00;;;;2077226;28;20206;-48
2022/03/18 02:55:13;;;;;;;6.35;5.32;;;;;21.20;102769.00;;;;2077408;28;20224;-48
2022/03/18 02:56:13;;;;;;;6.37;5.77;;;;;21.20;102773.00;;;;2075893;28;20248;-48
2022/03/18 02:57:14;;;;;;;6.00;5.40;;;;;21.20;102768.00;;;;2076191;28;20244;-48
2022/03/18 02:58:14;;;;;;;6.40;5.80;;;;;21.20;102770.00;;;;2069762;28;20654;-47
2022/03/18 02:59:14;;;;;;;6.20;5.60;;;;;21.20;102770.00;;;;2069562;28;20221;-46
2022/03/18 03:00:16;;;;;;;6.73;6.13;;;;;21.20;102786.00;;;;2070015;28;20237;-46
2022/03/18 03:01:17;;;;;;;8.35;5.78;;;;;21.20;102780.00;;;;2070079;28;20267;-46
2022/03/18 03:02:17;;;;;;;6.13;5.60;;;;;21.20;102781.00;;;;2069894;28;20257;-49
2022/03/18 03:03:18;;;;;;;6.13;5.57;;;;;21.20;102781.00;;;;2069586;28;20238;-47
2022/03/18 03:04:18;;;;;;;6.20;5.60;;;;;21.20;102786.00;;;;2070574;28;20206;-47
2022/03/18 03:07:59;;;;;;;5.72;5.22;;;;;21.20;102792.00;;;;2078631;28;20214;-48
2022/03/18 03:08:59;;;;;;;6.30;5.68;;;;;21.20;102794.00;;;;2078620;28;20761;-48
2022/03/18 03:10:01;;;;;;;6.50;5.90;;;;;21.20;102795.00;;;;2078507;28;20221;-48
2022/03/18 03:11:02;;;;;;;6.53;5.50;;;;;21.20;102803.00;;;;2078538;28;20584;-49
2022/03/18 03:12:02;;;;;;;6.10;5.50;;;;;21.20;102795.00;;;;2079534;28;20220;-49
2022/03/18 03:13:06;;;;;;;5.73;5.13;;;;;21.20;102797.00;;;;2079837;28;20296;-48
2022/03/18 03:14:06;;;;;;;8.68;5.80;;;;;21.20;102798.00;;;;2079813;28;20224;-48
2022/03/18 03:15:07;;;;;;;6.80;5.70;;;;;21.20;102806.00;;;;2079516;28;20681;-46
2022/03/18 03:16:08;;;;;;;6.40;5.55;;;;;21.20;102797.00;;;;2071203;28;20221;-46
2022/03/18 03:17:08;;;;;;;6.17;5.57;;;;;21.20;102797.00;;;;2071908;28;20224;-47
2022/03/18 03:18:09;;;;;;;6.50;5.90;;;;;21.20;102799.00;;;;2071604;28;21066;-48
2022/03/18 03:19:09;;;;;;;6.00;5.43;;;;;21.20;102797.00;;;;2075618;28;20913;-47
2022/03/18 03:20:10;;;;;;;5.77;5.17;;;;;21.10;102799.00;;;;2071809;28;20210;-47
2022/03/18 03:21:11;;;;;;;6.53;5.15;;;;;21.20;102798.00;;;;2074343;28;20591;-48
2022/03/18 03:22:11;;;;;;;6.20;5.60;;;;;21.20;102797.00;;;;2080128;28;20220;-48
2022/03/18 03:23:11;;;;;;;6.93;5.33;;;;;21.20;102799.00;;;;2080104;28;20225;-49
2022/03/18 03:24:12;;;;;;;6.37;5.60;;;;;21.20;102798.00;;;;2079890;28;20217;-50
2022/03/18 03:25:12;;;;;;;5.67;5.10;;;;;21.10;102806.00;;;;2080142;28;20225;-48
2022/03/18 03:26:13;;;;;;;5.97;5.37;;;;;21.10;102804.00;;;;2079507;28;20248;-49
2022/03/18 03:27:13;;;;;;;5.10;4.70;;;;;21.10;102799.00;;;;2079906;28;20267;-48
2022/03/18 03:28:13;;;;;;;5.97;5.37;;;;;21.10;102797.00;;;;2075855;28;20348;-48
2022/03/18 03:29:14;;;;;;;6.00;5.27;;;;;21.10;102796.00;;;;2079769;28;20251;-48
2022/03/18 03:30:14;;;;;;;5.73;5.23;;;;;21.10;102809.00;;;;2076957;28;20300;-48
2022/03/18 03:31:14;;;;;;;6.10;5.50;;;;;21.10;102801.00;;;;2071020;28;20302;-48
2022/03/18 03:32:15;;;;;;;5.93;5.33;;;;;21.10;102819.00;;;;2070800;28;20717;-49
2022/03/18 03:33:16;;;;;;;6.50;5.50;;;;;21.10;102804.00;;;;2070376;28;20717;-48
2022/03/18 03:34:17;;;;;;;6.13;5.32;;;;;21.10;102800.00;;;;2070829;28;20231;-48
2022/03/18 03:35:18;;;;;;;7.40;5.30;;;;;21.10;102801.00;;;;2071181;28;20206;-48
2022/03/18 03:36:19;;;;;;;6.17;5.17;;;;;21.10;102804.00;;;;2079815;28;20213;-48
2022/03/18 03:37:19;;;;;;;5.57;5.07;;;;;21.10;102805.00;;;;2078988;28;20456;-48
2022/03/18 03:38:21;;;;;;;5.17;4.77;;;;;21.10;102803.00;;;;2078562;28;20243;-47
2022/03/18 03:39:21;;;;;;;5.47;4.97;;;;;21.10;102816.00;;;;2079019;28;20222;-48
2022/03/18 03:40:22;;;;;;;6.37;5.20;;;;;21.10;102803.00;;;;2079525;28;20213;-48
2022/03/18 03:41:23;;;;;;;5.40;4.90;;;;;21.10;102803.00;;;;2079301;28;20216;-48
2022/03/18 03:42:23;;;;;;;5.70;4.87;;;;;21.10;102814.00;;;;2079746;28;20296;-48
2022/03/18 03:43:24;;;;;;;5.90;5.40;;;;;21.10;102813.00;;;;2071997;28;20222;-48
2022/03/18 03:44:24;;;;;;;5.67;5.13;;;;;21.10;102812.00;;;;2071183;28;20218;-48
2022/03/18 03:45:24;;;;;;;6.63;5.33;;;;;21.10;102806.00;;;;2070628;28;20206;-48
2022/03/18 03:46:25;;;;;;;6.20;5.27;;;;;21.10;102815.00;;;;2071008;28;20260;-48
2022/03/18 03:47:25;;;;;;;5.57;5.00;;;;;21.10;102815.00;;;;2074028;28;20284;-48
2022/03/18 03:48:25;;;;;;;5.37;4.93;;;;;21.10;102811.00;;;;2078841;28;20239;-48
2022/03/18 03:49:26;;;;;;;6.07;5.43;;;;;21.10;102810.00;;;;2071430;28;20215;-48
2022/03/18 03:50:27;;;;;;;5.80;5.20;;;;;21.10;102814.00;;;;2071403;28;20213;-48
2022/03/18 03:51:27;;;;;;;6.10;5.10;;;;;21.10;102817.00;;;;2071299;28;20206;-48
2022/03/18 03:52:27;;;;;;;5.77;5.10;;;;;21.10;102821.00;;;;2069572;28;20206;-48
2022/03/18 03:53:28;;;;;;;6.83;5.77;;;;;21.10;102813.00;;;;2068300;28;20206;-47
2022/03/18 03:54:28;;;;;;;7.67;5.90;;;;;21.10;102817.00;;;;2071287;28;20210;-48
2022/03/18 03:55:29;;;;;;;5.83;5.00;;;;;21.00;102811.00;;;;2070270;28;20287;-47
2022/03/18 03:56:29;;;;;;;6.17;5.40;;;;;21.00;102806.00;;;;2071615;28;20237;-48
2022/03/18 03:57:29;;;;;;;5.43;4.93;;;;;21.00;102814.00;;;;2070408;28;20233;-47
2022/03/18 03:58:30;;;;;;;6.07;5.03;;;;;21.00;102802.00;;;;2071700;28;20241;-48
2022/03/18 03:59:30;;;;;;;5.63;4.90;;;;;21.00;102813.00;;;;2071726;28;20218;-49
2022/03/18 04:00:30;;;;;;;4.90;4.40;;;;;21.00;102809.00;;;;2071617;28;20218;-49
2022/03/18 04:01:31;;;;;;;5.67;5.13;;;;;21.00;102814.00;;;;2072190;28;20509;-48
2022/03/18 04:02:31;;;;;;;5.20;4.70;;;;;21.00;102814.00;;;;2072052;28;20260;-48
2022/03/18 04:03:32;;;;;;;5.53;4.90;;;;;21.00;102818.00;;;;2071829;28;20226;-48
2022/03/18 04:04:33;;;;;;;5.93;5.33;;;;;21.00;102815.00;;;;2078746;28;20775;-47
2022/03/18 04:05:33;;;;;;;4.77;4.27;;;;;21.00;102810.00;;;;2070884;28;20476;-47
2022/03/18 04:06:33;;;;;;;6.40;5.40;;;;;21.00;102815.00;;;;2070689;28;20222;-48
2022/03/18 04:07:37;;;;;;;5.90;4.70;;;;;21.00;102815.00;;;;2070586;28;20599;-48
2022/03/18 04:08:38;;;;;;;6.13;5.20;;;;;21.00;102819.00;;;;2069938;28;20218;-48
2022/03/18 04:09:38;;;;;;;5.70;5.20;;;;;21.00;102822.00;;;;2071158;28;20245;-48
2022/03/18 04:10:42;;;;;;;4.90;4.50;;;;;21.00;102824.00;;;;2071652;28;20224;-48
2022/03/18 04:11:42;;;;;;;5.85;4.75;;;;;21.00;102822.00;;;;2071559;28;20214;-47
2022/03/18 04:12:43;;;;;;;5.83;5.23;;;;;21.00;102819.00;;;;2072133;28;20706;-48
2022/03/18 04:13:43;;;;;;;5.23;4.73;;;;;21.00;102821.00;;;;2071690;28;20669;-47
2022/03/18 04:14:43;;;;;;;5.40;4.67;;;;;21.00;102824.00;;;;2071472;28;20693;-48
2022/03/18 04:15:44;;;;;;;5.37;4.43;;;;;21.00;102822.00;;;;2070683;28;20228;-48
2022/03/18 04:16:47;;;;;;;5.33;4.83;;;;;21.00;102829.00;;;;2075641;28;20706;-48
2022/03/18 04:17:47;;;;;;;6.40;5.20;;;;;21.00;102831.00;;;;2077539;28;20217;-49
2022/03/18 04:18:48;;;;;;;5.37;4.40;;;;;21.00;102825.00;;;;2079867;28;20213;-48
2022/03/18 04:19:48;;;;;;;5.73;5.20;;;;;21.00;102804.00;;;;2078709;28;20472;-47
2022/03/18 04:20:49;;;;;;;5.60;5.10;;;;;21.00;102835.00;;;;2078326;28;20264;-46
2022/03/18 04:21:49;;;;;;;7.03;4.90;;;;;21.00;102822.00;;;;2078660;28;20308;-46
2022/03/18 04:22:50;;;;;;;5.20;4.70;;;;;21.00;102829.00;;;;2074103;28;20237;-48
2022/03/18 04:23:50;;;;;;;5.10;4.60;;;;;21.00;102831.00;;;;2070558;28;20218;-48
2022/03/18 04:24:51;;;;;;;5.13;4.63;;;;;21.00;102831.00;;;;2075345;28;20594;-47
2022/03/18 04:25:51;;;;;;;6.07;5.40;;;;;21.00;102837.00;;;;2078884;28;20735;-48
2022/03/18 04:26:52;;;;;;;5.80;5.30;;;;;21.00;102832.00;;;;2079490;28;20708;-48
2022/03/18 04:27:53;;;;;;;5.80;5.20;;;;;21.00;102831.00;;;;2073088;28;20294;-48
2022/03/18 04:28:54;;;;;;;5.18;4.63;;;;;20.90;102845.00;;;;2078567;28;20310;-47
2022/03/18 04:29:54;;;;;;;5.33;4.83;;;;;20.90;102838.00;;;;2078410;28;20707;-48
2022/03/18 04:30:54;;;;;;;4.97;4.33;;;;;21.00;102831.00;;;;2071250;28;20714;-48
2022/03/18 04:31:55;;;;;;;4.63;4.23;;;;;21.00;102826.00;;;;2071276;28;20242;-47
2022/03/18 04:32:55;;;;;;;5.87;4.57;;;;;20.90;102826.00;;;;2071400;28;20234;-48
2022/03/18 04:33:55;;;;;;;6.07;4.50;;;;;20.90;102832.00;;;;2075540;28;20649;-47
2022/03/18 04:34:56;;;;;;;5.60;4.43;;;;;20.90;102833.00;;;;2079713;28;20229;-48
2022/03/18 04:35:56;;;;;;;4.97;4.57;;;;;20.90;102850.00;;;;2079392;28;20708;-48
2022/03/18 04:36:56;;;;;;;5.00;4.60;;;;;20.90;102837.00;;;;2080115;28;20726;-48
2022/03/18 04:37:57;;;;;;;5.13;4.63;;;;;20.90;102846.00;;;;2080269;28;20705;-48
2022/03/18 04:38:57;;;;;;;5.90;4.83;;;;;20.90;102837.00;;;;2079757;28;20872;-48
2022/03/18 04:39:58;;;;;;;5.77;4.67;;;;;20.90;102834.00;;;;2079638;28;20209;-48
2022/03/18 04:40:58;;;;;;;5.30;4.80;;;;;20.90;102830.00;;;;2077097;28;20511;-48
2022/03/18 04:41:58;;;;;;;5.20;4.70;;;;;20.90;102835.00;;;;2071683;28;20210;-46
2022/03/18 04:42:59;;;;;;;4.70;4.30;;;;;20.90;102837.00;;;;2079818;28;20210;-48
2022/03/18 04:44:01;;;;;;;5.50;4.60;;;;;20.90;102835.00;;;;2078923;28;20213;-48
2022/03/18 04:45:01;;;;;;;5.13;4.63;;;;;20.90;102837.00;;;;2078294;28;20684;-48
2022/03/18 04:46:02;;;;;;;6.20;4.70;;;;;20.90;102843.00;;;;2077753;28;20221;-48
2022/03/18 04:47:02;;;;;;;7.97;5.40;;;;;20.90;102848.00;;;;2078461;28;20224;-48
2022/03/18 04:48:02;;;;;;;5.10;4.60;;;;;20.90;102846.00;;;;2077831;28;20230;-47
2022/03/18 04:49:03;;;;;;;5.10;4.63;;;;;20.90;102846.00;;;;2079046;28;20634;-50
2022/03/18 04:50:04;;;;;;;5.43;4.40;;;;;20.90;102844.00;;;;2078608;28;20225;-48
2022/03/18 04:51:04;;;;;;;4.90;4.47;;;;;20.90;102844.00;;;;2074076;28;20313;-48
2022/03/18 04:52:05;;;;;;;5.90;4.60;;;;;20.90;102845.00;;;;2070099;28;21067;-47
2022/03/18 04:53:05;;;;;;;5.10;4.60;;;;;20.90;102848.00;;;;2070468;28;20221;-48
2022/03/18 04:54:06;;;;;;;4.70;4.30;;;;;20.90;102844.00;;;;2074219;28;20217;-48
2022/03/18 04:55:07;;;;;;;5.25;4.60;;;;;20.90;102854.00;;;;2078673;28;20673;-47
2022/03/18 04:57:15;;;;;;;6.13;4.80;;;;;20.90;102848.00;;;;2078152;28;20213;-48
2022/03/18 04:57:28;;;;;;;4.78;4.28;;;;;20.90;102858.00;;;;2070303;28;21148;-48
2022/03/18 04:58:28;;;;;;;4.97;4.53;;;;;20.90;102856.00;;;;2070652;28;20253;-48
2022/03/18 04:59:28;;;;;;;5.10;4.47;;;;;20.90;102862.00;;;;2070196;28;20217;-47
2022/03/18 05:00:29;;;;;;;5.17;4.20;;;;;20.90;102852.00;;;;2078921;28;20300;-47
2022/03/18 05:01:29;;;;;;;4.93;4.43;;;;;20.90;102868.00;;;;2079142;28;20217;-49
2022/03/18 05:02:29;;;;;;;4.70;4.30;;;;;20.90;102877.00;;;;2079163;28;20692;-48
2022/03/18 05:03:30;;;;;;;5.20;4.70;;;;;20.80;102857.00;;;;2079326;28;20803;-48
2022/03/18 05:04:30;;;;;;;5.60;5.00;;;;;20.90;102865.00;;;;2078655;28;20772;-47
2022/03/18 05:05:31;;;;;;;4.90;4.40;;;;;20.90;102870.00;;;;2078410;28;21021;-48
2022/03/18 05:06:33;;;;;;;4.80;4.30;;;;;20.90;102871.00;;;;2079181;28;20301;-48